Time;durP1;ratioP1;P1;durP2;ratioP2;P2;SDS_P1;SDS_P2;PMS_P1;PMS_P2;Temp;Humidity;BMP_temperature;BMP_pressure;BME280_temperature;BME280_humidity;BME280_pressure;Samples;Min_cycle;Max_cycle;Signal;HPM_P1;HPM_P2
2022/12/17 13:08:21;;;;;;;40.78;25.52;;;1.00;99.90;;;;;;5032186;28;20045;-69
2022/12/17 13:10:48;;;;;;;30.27;18.13;;;0.80;99.90;;;;;;5031666;28;20116;-71
2022/12/17 13:13:14;;;;;;;28.33;15.98;;;0.50;99.90;;;;;;5031903;28;20113;-71
2022/12/17 13:15:45;;;;;;;35.40;20.73;;;0.30;99.90;;;;;;5031289;28;20128;-71
2022/12/17 13:18:40;;;;;;;29.63;16.80;;;0.80;99.90;;;;;;5014168;28;20128;-71
2022/12/17 13:21:15;;;;;;;34.03;17.90;;;0.30;99.90;;;;;;5034931;28;20049;-71
2022/12/17 13:23:42;;;;;;;30.23;16.58;;;0.50;99.90;;;;;;5035645;28;20362;-71
2022/12/17 13:26:35;;;;;;;30.13;16.38;;;-0.30;99.90;;;;;;5035483;28;20083;-71
2022/12/17 13:29:10;;;;;;;33.47;17.40;;;-0.40;99.90;;;;;;5035281;28;20161;-71
2022/12/17 13:32:10;;;;;;;27.33;16.05;;;-0.80;99.90;;;;;;5017982;28;20094;-71
2022/12/17 13:34:44;;;;;;;31.97;16.37;;;-1.10;99.90;;;;;;5004636;28;20477;-71
2022/12/17 13:37:17;;;;;;;28.60;15.45;;;-1.30;99.90;;;;;;5034874;28;20044;-70
2022/12/17 13:40:08;;;;;;;31.40;17.17;;;-1.30;99.90;;;;;;5036453;28;20077;-70
2022/12/17 13:42:35;;;;;;;35.08;18.40;;;-1.30;99.90;;;;;;5017562;28;20034;-70
2022/12/17 13:45:01;;;;;;;32.72;16.13;;;-1.20;99.90;;;;;;5016784;28;20136;-71
2022/12/17 13:47:31;;;;;;;33.63;17.08;;;-0.40;99.90;;;;;;5034548;28;20108;-70
2022/12/17 13:49:58;;;;;;;34.25;17.75;;;-0.80;99.90;;;;;;5036525;28;20057;-70
2022/12/17 13:52:27;;;;;;;36.38;18.38;;;-1.00;99.90;;;;;;5035120;28;20034;-70
2022/12/17 13:55:04;;;;;;;36.75;18.83;;;-1.30;99.90;;;;;;5035103;28;20060;-70
2022/12/17 13:57:30;;;;;;;39.25;19.35;;;-1.30;99.90;;;;;;5016734;28;20061;-70
2022/12/17 13:59:58;;;;;;;36.00;18.48;;;-1.30;99.90;;;;;;5030304;28;20106;-70
2022/12/17 14:02:30;;;;;;;35.30;18.92;;;-1.30;99.90;;;;;;5032953;28;20049;-70
2022/12/17 14:04:59;;;;;;;33.00;17.35;;;-1.30;99.90;;;;;;5031348;28;20087;-70
2022/12/17 14:07:26;;;;;;;42.63;18.70;;;-1.40;99.90;;;;;;5028755;28;20049;-70
2022/12/17 14:09:54;;;;;;;37.42;17.85;;;-1.50;99.90;;;;;;5033128;28;20491;-69
2022/12/17 14:12:24;;;;;;;36.33;17.85;;;-1.40;99.90;;;;;;5032921;28;20068;-70
2022/12/17 14:15:07;;;;;;;37.17;18.13;;;-1.50;99.90;;;;;;5032252;28;20514;-70
2022/12/17 14:17:47;;;;;;;38.50;20.30;;;-1.50;99.90;;;;;;5016816;28;20037;-69
2022/12/17 14:20:17;;;;;;;44.05;20.55;;;-1.30;99.90;;;;;;5014745;28;20053;-69
2022/12/17 14:22:46;;;;;;;39.80;19.50;;;-1.60;99.90;;;;;;5014923;28;20121;-70
2022/12/17 14:25:19;;;;;;;36.70;18.73;;;-1.60;99.90;;;;;;5032110;28;20037;-71
2022/12/17 14:28:01;;;;;;;38.35;19.35;;;-1.70;99.90;;;;;;5035650;28;20520;-71
2022/12/17 14:30:39;;;;;;;41.67;20.50;;;-1.60;99.90;;;;;;5033251;28;20366;-71
2022/12/17 14:33:26;;;;;;;40.35;19.92;;;-1.60;99.90;;;;;;5031341;28;20143;-71
2022/12/17 14:35:54;;;;;;;42.33;20.98;;;-1.60;99.90;;;;;;5013261;28;20030;-70
2022/12/17 14:38:20;;;;;;;45.00;21.48;;;-1.60;99.90;;;;;;5014382;28;20379;-71
2022/12/17 14:40:46;;;;;;;46.35;22.80;;;-1.70;99.90;;;;;;5014437;28;20038;-69
2022/12/17 14:43:13;;;;;;;38.72;20.98;;;-1.70;99.90;;;;;;5014733;28;20046;-71
2022/12/17 14:51:22;;;;;;;46.22;22.80;;;-1.90;99.90;;;;;;5034134;28;20043;-71
2022/12/17 14:53:48;;;;;;;41.60;20.92;;;-2.00;99.90;;;;;;5033785;28;20045;-70
2022/12/17 14:56:22;;;;;;;45.58;22.77;;;-2.00;99.90;;;;;;5034052;28;20048;-69
2022/12/17 14:58:48;;;;;;;41.60;22.27;;;-2.00;99.90;;;;;;5033203;28;20041;-71
2022/12/17 15:01:14;;;;;;;47.25;22.17;;;-2.00;99.90;;;;;;5033744;28;20577;-72
2022/12/17 15:03:44;;;;;;;48.97;23.08;;;-2.10;99.90;;;;;;5033612;28;20061;-71
2022/12/17 15:06:16;;;;;;;47.13;22.83;;;-2.00;99.90;;;;;;5033434;28;20042;-71
2022/12/17 15:08:45;;;;;;;48.45;23.70;;;-2.20;99.90;;;;;;5033463;28;20037;-71
2022/12/17 15:11:14;;;;;;;48.03;23.13;;;-2.30;99.90;;;;;;5016439;28;20094;-71
2022/12/17 15:13:40;;;;;;;49.50;22.63;;;-2.40;99.90;;;;;;5034779;28;20033;-71
2022/12/17 15:16:06;;;;;;;46.47;22.50;;;-2.40;99.90;;;;;;5034801;28;20037;-71
2022/12/17 15:18:32;;;;;;;48.38;22.92;;;-2.40;99.90;;;;;;5034199;28;20041;-70
2022/12/17 15:20:58;;;;;;;46.78;22.92;;;-2.40;99.90;;;;;;5033179;28;20049;-70
2022/12/17 15:23:24;;;;;;;56.38;25.38;;;-2.50;99.90;;;;;;5034961;28;20380;-69
2022/12/17 15:25:52;;;;;;;47.33;23.95;;;-2.50;99.90;;;;;;5035230;28;20512;-70
2022/12/17 15:28:19;;;;;;;46.55;23.42;;;-2.50;99.90;;;;;;5034328;28;20056;-69
2022/12/17 15:30:46;;;;;;;47.38;24.83;;;-2.60;99.90;;;;;;5032918;28;20075;-72
2022/12/17 15:33:13;;;;;;;47.72;19.73;;;-2.40;99.90;;;;;;5033961;28;20111;-72
2022/12/17 15:35:39;;;;;;;54.78;25.25;;;-0.20;99.90;;;;;;5034912;28;20069;-72
2022/12/17 15:38:06;;;;;;;56.95;27.40;;;-1.40;99.90;;;;;;5032609;28;20068;-72
2022/12/17 15:40:32;;;;;;;54.70;25.65;;;-1.80;99.90;;;;;;5032839;28;20047;-71
2022/12/17 15:43:10;;;;;;;58.92;27.40;;;-1.80;99.90;;;;;;5031555;28;20038;-71
2022/12/17 15:45:45;;;;;;;52.03;23.55;;;-1.80;99.90;;;;;;5032685;28;20033;-71
2022/12/17 15:48:12;;;;;;;55.97;26.42;;;-1.90;99.90;;;;;;5034345;28;20049;-71
2022/12/17 15:50:38;;;;;;;55.40;27.35;;;-1.80;99.90;;;;;;5034692;28;20466;-71
2022/12/17 15:53:04;;;;;;;56.67;27.65;;;-1.90;99.90;;;;;;5033144;28;20116;-71
2022/12/17 15:55:31;;;;;;;52.20;26.00;;;-1.90;99.90;;;;;;5031988;28;20052;-71
2022/12/17 15:57:57;;;;;;;50.83;24.75;;;-2.00;99.90;;;;;;5032986;28;20443;-71
2022/12/17 16:00:23;;;;;;;59.05;27.58;;;-1.90;99.90;;;;;;5032666;28;20401;-71
2022/12/17 16:02:49;;;;;;;60.35;26.27;;;-1.90;99.90;;;;;;5032528;28;20025;-71
2022/12/17 16:05:16;;;;;;;52.28;24.73;;;-2.10;99.90;;;;;;5032170;28;20040;-71
2022/12/17 16:07:44;;;;;;;58.97;26.65;;;-2.20;99.90;;;;;;5033381;28;20080;-72
2022/12/17 16:10:11;;;;;;;53.78;26.20;;;-2.20;99.90;;;;;;5031439;28;20037;-71
2022/12/17 16:12:38;;;;;;;61.72;30.45;;;-2.20;99.90;;;;;;5032622;28;20120;-71
2022/12/17 16:15:05;;;;;;;53.97;26.75;;;-2.10;99.90;;;;;;5031679;28;20051;-72
2022/12/17 16:17:31;;;;;;;58.20;28.35;;;-1.90;99.90;;;;;;5032089;28;20488;-72
2022/12/17 16:19:56;;;;;;;56.03;27.15;;;-2.10;99.90;;;;;;5031976;28;20409;-72
2022/12/17 16:22:23;;;;;;;59.10;26.95;;;-2.20;99.90;;;;;;5031948;28;20032;-70
2022/12/17 16:24:48;;;;;;;57.00;26.80;;;-2.10;99.90;;;;;;5032631;28;20041;-72
2022/12/17 16:27:16;;;;;;;56.60;26.35;;;-2.00;99.90;;;;;;5032140;28;20397;-72
2022/12/17 16:29:43;;;;;;;57.15;27.20;;;-2.00;99.90;;;;;;5032925;28;20099;-72
2022/12/17 16:32:09;;;;;;;59.08;27.77;;;-2.00;99.90;;;;;;5032238;28;20129;-73
2022/12/17 16:34:34;;;;;;;60.92;27.25;;;-2.00;99.90;;;;;;5031911;28;20128;-72
2022/12/17 16:37:00;;;;;;;54.10;26.73;;;-2.00;99.90;;;;;;5032190;28;20112;-72
2022/12/17 16:39:26;;;;;;;53.95;26.73;;;-2.00;99.90;;;;;;5033774;28;20084;-72
2022/12/17 16:41:52;;;;;;;53.28;25.13;;;-2.00;99.90;;;;;;5014656;28;20037;-72
2022/12/17 16:44:18;;;;;;;56.30;26.63;;;-2.00;99.90;;;;;;5031355;28;20041;-72
2022/12/17 16:46:45;;;;;;;56.60;27.33;;;-2.20;99.90;;;;;;5031925;28;20048;-72
2022/12/17 16:49:28;;;;;;;54.88;27.33;;;-2.20;99.90;;;;;;5033689;28;20095;-72
2022/12/17 16:51:55;;;;;;;57.78;26.85;;;-2.20;99.90;;;;;;5015039;28;20102;-71
2022/12/17 16:54:24;;;;;;;56.70;25.30;;;-2.10;99.90;;;;;;5030944;28;20033;-71
2022/12/17 16:56:52;;;;;;;58.90;28.38;;;-2.10;99.90;;;;;;5030979;28;20041;-71
2022/12/17 16:59:20;;;;;;;63.28;27.88;;;-2.10;99.90;;;;;;5030553;28;20053;-70
2022/12/17 17:01:49;;;;;;;58.63;26.40;;;-2.20;99.90;;;;;;5031953;28;20051;-72
2022/12/17 17:04:17;;;;;;;60.22;27.95;;;-2.40;99.90;;;;;;5030149;28;20046;-71
2022/12/17 17:06:46;;;;;;;62.28;27.30;;;-2.50;99.90;;;;;;5012003;28;20196;-72
2022/12/17 17:09:13;;;;;;;61.42;28.52;;;-2.50;99.90;;;;;;5011922;28;20091;-72
2022/12/17 17:11:39;;;;;;;81.65;33.85;;;-2.30;99.90;;;;;;5011991;28;20429;-72
2022/12/17 17:14:06;;;;;;;63.10;27.98;;;-2.20;99.90;;;;;;5013472;28;20489;-73
2022/12/17 17:16:35;;;;;;;62.13;27.17;;;-2.30;99.90;;;;;;5031543;28;20041;-73
2022/12/17 17:19:02;;;;;;;85.35;26.40;;;-2.40;99.90;;;;;;5031388;28;20049;-73
2022/12/17 17:21:31;;;;;;;63.90;25.48;;;-2.50;99.90;;;;;;5031278;28;20114;-73
2022/12/17 17:24:02;;;;;;;64.95;26.73;;;-2.50;99.90;;;;;;5014737;28;20033;-73
2022/12/17 17:26:31;;;;;;;58.97;27.98;;;-2.50;99.90;;;;;;5031845;28;20045;-72
2022/12/17 17:28:57;;;;;;;63.42;29.92;;;-2.50;99.90;;;;;;5030120;28;20091;-72
2022/12/17 17:31:24;;;;;;;181.63;32.65;;;-2.50;99.90;;;;;;5031263;28;20095;-72
2022/12/17 17:33:50;;;;;;;63.03;28.05;;;-1.60;99.90;;;;;;5013515;28;20106;-72
2022/12/17 17:36:20;;;;;;;85.47;26.85;;;-2.20;99.90;;;;;;5031044;28;20038;-71
2022/12/17 17:38:48;;;;;;;110.70;27.13;;;-2.30;99.90;;;;;;5032638;28;20088;-69
2022/12/17 17:41:20;;;;;;;93.65;26.75;;;-2.40;99.90;;;;;;5031326;28;20045;-72
2022/12/17 17:43:46;;;;;;;61.90;26.52;;;-2.50;99.90;;;;;;5012901;28;20133;-71
2022/12/17 17:46:15;;;;;;;63.53;28.98;;;-2.50;99.90;;;;;;5031193;28;20040;-72
2022/12/17 17:48:41;;;;;;;68.53;27.40;;;-2.50;99.90;;;;;;5013729;28;20552;-72
2022/12/17 17:51:14;;;;;;;68.50;27.83;;;-2.50;99.90;;;;;;5012792;28;20556;-73
2022/12/17 17:53:41;;;;;;;49.28;23.58;;;-2.40;99.90;;;;;;5031564;28;20049;-69
2022/12/17 17:56:16;;;;;;;57.35;25.80;;;-2.50;99.90;;;;;;5013201;28;20140;-73
2022/12/17 17:58:47;;;;;;;57.95;26.25;;;-2.60;99.90;;;;;;5030545;28;20045;-73
2022/12/17 18:01:17;;;;;;;60.28;26.92;;;-2.70;99.90;;;;;;5032478;28;20500;-73
2022/12/17 18:03:44;;;;;;;74.68;29.67;;;-2.60;99.90;;;;;;5015190;28;20045;-73
2022/12/17 18:06:12;;;;;;;55.25;24.80;;;-2.40;99.90;;;;;;5034117;28;20686;-74
2022/12/17 18:08:39;;;;;;;51.55;23.98;;;-2.80;99.90;;;;;;5036145;28;20140;-73
2022/12/17 18:11:09;;;;;;;66.88;26.58;;;-2.90;99.90;;;;;;5036224;28;20589;-73
2022/12/17 18:13:53;;;;;;;;;;;-3.10;99.90;;;;;;5035358;28;20049;-73
2022/12/17 18:16:27;;;;;;;55.50;24.90;;;-3.10;99.90;;;;;;5014941;28;19964;-72
2022/12/17 18:19:08;;;;;;;66.88;24.38;;;-3.10;99.90;;;;;;5014348;28;20041;-72
2022/12/17 18:21:34;;;;;;;55.70;24.50;;;-3.40;99.90;;;;;;5014739;28;20034;-71
2022/12/17 18:24:04;;;;;;;51.80;24.77;;;-3.40;99.90;;;;;;5015402;28;20045;-71
2022/12/17 18:26:34;;;;;;;54.80;23.85;;;-3.20;99.90;;;;;;5000144;28;20046;-72
2022/12/17 18:29:03;;;;;;;60.70;25.20;;;-3.10;99.90;;;;;;5034436;28;20042;-72
2022/12/17 18:31:29;;;;;;;57.20;24.67;;;-3.10;99.90;;;;;;5035927;28;20065;-72
2022/12/17 18:33:58;;;;;;;59.67;25.02;;;-3.00;99.90;;;;;;5033763;28;20037;-72
2022/12/17 18:36:30;;;;;;;55.88;25.35;;;-3.10;99.90;;;;;;5014465;28;20041;-71
2022/12/17 18:39:01;;;;;;;60.03;26.23;;;-3.10;99.90;;;;;;5014090;28;20037;-71
2022/12/17 18:44:12;;;;;;;56.58;23.25;;;-3.20;99.90;;;;;;5015992;28;20543;-71
2022/12/17 18:46:39;;;;;;;54.70;24.83;;;-3.30;99.90;;;;;;5016827;28;20037;-72
2022/12/17 18:49:08;;;;;;;56.92;24.15;;;-3.30;99.90;;;;;;5033486;28;20045;-72
2022/12/17 18:51:36;;;;;;;52.08;23.60;;;-3.20;99.90;;;;;;5033931;28;20038;-71
2022/12/17 18:54:03;;;;;;;62.95;25.45;;;-3.30;99.90;;;;;;5034835;28;20072;-71
2022/12/17 18:56:29;;;;;;;72.85;30.63;;;-3.30;99.90;;;;;;5033765;28;20488;-71
2022/12/17 18:58:56;;;;;;;61.08;26.58;;;-3.30;99.90;;;;;;5032705;28;20041;-70
2022/12/17 19:01:24;;;;;;;56.22;25.10;;;-3.00;99.90;;;;;;5033635;28;20073;-71
2022/12/17 19:03:50;;;;;;;62.10;25.80;;;-3.10;99.90;;;;;;5015290;28;20125;-71
2022/12/17 19:06:17;;;;;;;61.17;25.77;;;-3.10;99.90;;;;;;5015588;28;20045;-70
2022/12/17 19:08:44;;;;;;;69.85;27.42;;;-2.90;99.90;;;;;;5035053;28;20056;-71
2022/12/17 19:11:14;;;;;;;63.63;27.30;;;-3.00;99.90;;;;;;5035101;28;20049;-71
2022/12/17 19:13:40;;;;;;;63.22;25.73;;;-3.10;99.90;;;;;;5034660;28;20045;-70
2022/12/17 19:16:14;;;;;;;70.35;28.80;;;-3.00;99.90;;;;;;5033841;28;20421;-70
2022/12/17 19:18:40;;;;;;;64.45;29.20;;;-2.90;99.90;;;;;;5032685;28;20029;-70
2022/12/17 19:21:09;;;;;;;77.22;35.22;;;-3.10;99.90;;;;;;5033237;28;20037;-70
2022/12/17 19:23:35;;;;;;;59.95;27.35;;;-3.20;99.90;;;;;;5033434;28;20504;-70
2022/12/17 19:26:14;;;;;;;54.28;25.33;;;-3.20;99.90;;;;;;5032880;28;20560;-70
2022/12/17 19:28:41;;;;;;;62.53;25.25;;;-3.20;99.90;;;;;;5033700;28;20053;-70
2022/12/17 19:31:08;;;;;;;59.50;25.30;;;-3.10;99.90;;;;;;5034765;28;20038;-68
2022/12/17 19:33:34;;;;;;;65.15;27.15;;;-3.10;99.90;;;;;;5033057;28;20069;-71
2022/12/17 19:36:05;;;;;;;64.97;27.75;;;-3.20;99.90;;;;;;5032540;28;20038;-71
2022/12/17 19:38:31;;;;;;;;;;;-3.20;99.90;;;;;;5033525;28;20402;-70
2022/12/17 19:41:05;;;;;;;53.65;22.20;;;-3.10;99.90;;;;;;5015909;28;19909;-71
2022/12/17 19:43:31;;;;;;;60.67;24.15;;;-3.10;99.90;;;;;;5016757;28;20187;-69
2022/12/17 19:46:26;;;;;;;53.45;23.33;;;-3.10;99.90;;;;;;5032225;28;20107;-69
2022/12/17 19:48:53;;;;;;;58.60;23.67;;;-3.30;99.90;;;;;;5031922;28;20080;-68
2022/12/17 19:51:21;;;;;;;57.78;24.15;;;-3.20;99.90;;;;;;5032797;28;20041;-70
2022/12/17 19:53:47;;;;;;;55.65;23.17;;;-3.10;99.90;;;;;;5032462;28;20481;-69
2022/12/17 19:56:30;;;;;;;54.75;22.67;;;-3.20;99.90;;;;;;5032759;28;20041;-70
2022/12/17 19:59:01;;;;;;;58.65;24.63;;;-3.00;99.90;;;;;;5033815;28;20037;-71
2022/12/17 20:01:30;;;;;;;60.70;25.25;;;-3.00;99.90;;;;;;5034169;28;20033;-68
2022/12/17 20:03:56;;;;;;;54.60;24.92;;;-3.20;99.90;;;;;;5032002;28;20095;-69
2022/12/17 20:06:25;;;;;;;63.13;25.58;;;-3.20;99.90;;;;;;5031673;28;20052;-70
2022/12/17 20:08:51;;;;;;;67.10;26.70;;;-3.00;99.90;;;;;;5033926;28;20045;-69
2022/12/17 20:11:33;;;;;;;62.90;26.42;;;-3.00;99.90;;;;;;5015517;28;20044;-70
2022/12/17 20:14:25;;;;;;;78.50;33.95;;;-3.10;99.90;;;;;;5031487;28;20041;-67
2022/12/17 20:16:56;;;;;;;72.20;30.70;;;-3.10;99.90;;;;;;5030886;28;20500;-70
2022/12/17 20:19:24;;;;;;;64.32;26.45;;;-3.00;99.90;;;;;;5031958;28;20388;-69
2022/12/17 20:21:51;;;;;;;64.65;27.10;;;-3.20;99.90;;;;;;5031950;28;20508;-71
2022/12/17 20:24:17;;;;;;;59.25;26.15;;;-3.00;99.90;;;;;;5014605;28;20045;-70
2022/12/17 20:26:45;;;;;;;55.38;25.05;;;-2.90;99.90;;;;;;5013973;28;20033;-70
2022/12/17 20:29:11;;;;;;;67.63;28.42;;;-2.80;99.90;;;;;;5032050;28;20041;-69
2022/12/17 20:31:37;;;;;;;65.55;27.85;;;-2.90;99.90;;;;;;5032700;28;20029;-68
2022/12/17 20:34:04;;;;;;;59.65;24.98;;;-3.00;99.90;;;;;;5031868;28;20091;-68
2022/12/17 20:36:30;;;;;;;58.70;25.20;;;-3.00;99.90;;;;;;5032303;28;20026;-70
2022/12/17 20:38:58;;;;;;;64.10;27.80;;;-3.00;99.90;;;;;;5031980;28;20120;-69
2022/12/17 20:41:27;;;;;;;56.08;25.40;;;-3.00;99.90;;;;;;5032742;28;20033;-69
2022/12/17 20:43:54;;;;;;;53.28;23.52;;;-2.90;99.90;;;;;;5032370;28;20088;-68
2022/12/17 20:46:21;;;;;;;61.85;25.88;;;-2.90;99.90;;;;;;5032182;28;20042;-68
2022/12/17 20:48:47;;;;;;;58.50;26.77;;;-2.90;99.90;;;;;;5031767;28;20053;-69
2022/12/17 20:51:16;;;;;;;66.75;28.17;;;-2.80;99.90;;;;;;5031219;28;20034;-69
2022/12/17 20:53:43;;;;;;;62.90;27.38;;;-2.80;99.90;;;;;;5031139;28;20076;-67
2022/12/17 20:56:12;;;;;;;61.80;27.17;;;-2.90;99.90;;;;;;5031900;28;20037;-67
2022/12/17 20:58:39;;;;;;;55.13;24.40;;;-3.00;99.90;;;;;;5014334;28;20042;-67
2022/12/17 21:01:08;;;;;;;57.78;25.50;;;-3.00;99.90;;;;;;5031601;28;20090;-68
2022/12/17 21:03:41;;;;;;;64.35;27.10;;;-2.90;99.90;;;;;;5031979;28;20041;-71
2022/12/17 21:06:15;;;;;;;56.28;24.60;;;-3.00;99.90;;;;;;5031534;28;20052;-70
2022/12/17 21:08:41;;;;;;;60.65;26.15;;;-2.90;99.90;;;;;;5031433;28;20095;-68
2022/12/17 21:11:08;;;;;;;58.88;23.90;;;-3.00;99.90;;;;;;5030962;28;20465;-67
2022/12/17 21:13:35;;;;;;;57.67;25.25;;;-3.10;99.90;;;;;;5031555;28;20041;-67
2022/12/17 21:16:04;;;;;;;56.38;23.05;;;-3.20;99.90;;;;;;5031547;28;20034;-69
2022/12/17 21:18:31;;;;;;;55.92;24.85;;;-3.30;99.90;;;;;;5031872;28;20140;-70
2022/12/17 21:21:02;;;;;;;63.63;26.50;;;-3.20;99.90;;;;;;5031477;28;20041;-70
2022/12/17 21:23:29;;;;;;;53.03;24.17;;;-3.10;99.90;;;;;;5032013;28;20441;-70
2022/12/17 21:26:19;;;;;;;74.47;29.52;;;-3.30;99.90;;;;;;5033128;28;20041;-68
2022/12/17 21:28:47;;;;;;;69.90;29.27;;;-3.30;99.90;;;;;;5013964;28;20374;-67
2022/12/17 21:31:20;;;;;;;59.80;25.30;;;-3.20;99.90;;;;;;5031351;28;20044;-68
2022/12/17 21:33:47;;;;;;;57.70;26.25;;;-3.30;99.90;;;;;;5031431;28;20076;-67
2022/12/17 21:36:14;;;;;;;65.75;26.20;;;-3.40;99.90;;;;;;5031632;28;20036;-65
2022/12/17 21:38:40;;;;;;;59.80;26.75;;;-3.50;99.90;;;;;;5033399;28;20037;-65
2022/12/17 21:41:10;;;;;;;67.90;27.25;;;-3.40;99.90;;;;;;5032197;28;20545;-66
2022/12/17 21:43:36;;;;;;;76.50;27.42;;;-3.40;99.90;;;;;;5035338;28;20509;-68
2022/12/17 21:46:04;;;;;;;62.47;26.40;;;-3.50;99.90;;;;;;5035303;28;20412;-68
2022/12/17 21:48:29;;;;;;;69.53;28.70;;;-3.40;99.90;;;;;;5034775;28;20057;-68
2022/12/17 21:50:55;;;;;;;74.38;28.33;;;-3.30;99.90;;;;;;5034750;28;20045;-67
2022/12/17 21:53:22;;;;;;;68.07;28.90;;;-3.20;99.90;;;;;;5035055;28;20484;-67
2022/12/17 21:55:48;;;;;;;67.53;27.20;;;-3.20;99.90;;;;;;5034410;28;20033;-66
2022/12/17 21:58:14;;;;;;;75.95;27.55;;;-3.20;99.90;;;;;;5016726;28;20516;-68
2022/12/17 22:00:41;;;;;;;71.80;30.10;;;-3.20;99.90;;;;;;5035298;28;20485;-69
2022/12/17 22:03:08;;;;;;;71.80;29.80;;;-3.10;99.90;;;;;;5016978;28;20037;-68
2022/12/17 22:05:37;;;;;;;74.82;29.73;;;-3.10;99.90;;;;;;5034670;28;20037;-68
2022/12/17 22:08:03;;;;;;;69.35;30.48;;;-3.00;99.90;;;;;;5036018;28;20067;-67
2022/12/17 22:10:30;;;;;;;67.60;27.75;;;-3.10;99.90;;;;;;5036549;28;20036;-66
2022/12/17 22:15:39;;;;;;;64.75;25.90;;;-3.30;99.90;;;;;;5035108;28;20045;-68
2022/12/17 22:18:05;;;;;;;65.63;26.70;;;-3.40;99.90;;;;;;5034482;28;20381;-68
2022/12/17 22:20:31;;;;;;;56.58;25.25;;;-3.40;99.90;;;;;;5034704;28;20045;-68
2022/12/17 22:22:57;;;;;;;56.05;26.02;;;-3.40;99.90;;;;;;5034198;28;20601;-68
2022/12/17 22:25:23;;;;;;;66.32;27.52;;;-3.50;99.90;;;;;;5034491;28;20121;-68
2022/12/17 22:27:48;;;;;;;65.65;27.25;;;-3.50;99.90;;;;;;5034941;28;20463;-68
2022/12/17 22:33:03;;;;;;;64.95;27.52;;;-3.40;99.90;;;;;;5033706;28;20040;-69
2022/12/17 22:35:38;;;;;;;65.40;27.50;;;-3.30;99.90;;;;;;5034911;28;20400;-69
2022/12/17 22:38:05;;;;;;;65.95;27.80;;;-3.20;99.90;;;;;;5033993;28;20045;-68
2022/12/17 22:40:35;;;;;;;62.47;26.95;;;-3.10;99.90;;;;;;5016624;28;20392;-68
2022/12/17 22:45:46;;;;;;;66.80;29.02;;;-3.00;99.90;;;;;;5035864;28;20112;-69
2022/12/17 22:48:13;;;;;;;67.75;28.08;;;-2.90;99.90;;;;;;5036075;28;20136;-66
2022/12/17 22:50:40;;;;;;;64.28;27.58;;;-2.90;99.90;;;;;;5035982;28;20043;-67
2022/12/17 22:53:06;;;;;;;69.38;28.13;;;-2.80;99.90;;;;;;5034807;28;20045;-69
2022/12/17 22:55:32;;;;;;;72.50;30.20;;;-2.90;99.90;;;;;;5035680;28;20045;-67
2022/12/17 22:57:58;;;;;;;79.07;33.67;;;-3.00;99.90;;;;;;5035976;28;20041;-67
2022/12/17 23:00:28;;;;;;;71.05;28.02;;;-3.00;99.90;;;;;;5036154;28;20133;-67
2022/12/17 23:02:54;;;;;;;67.97;28.85;;;-3.20;99.90;;;;;;5035631;28;20042;-67
2022/12/17 23:05:24;;;;;;;73.97;29.83;;;-3.30;99.90;;;;;;5035672;28;20124;-68
2022/12/17 23:07:51;;;;;;;74.57;29.10;;;-3.20;99.90;;;;;;5035726;28;20079;-66
2022/12/17 23:10:18;;;;;;;60.97;25.90;;;-3.30;99.90;;;;;;5035682;28;20061;-69
2022/12/17 23:12:49;;;;;;;67.97;27.75;;;-3.20;99.90;;;;;;5035461;28;20049;-69
2022/12/17 23:15:29;;;;;;;65.68;25.10;;;-3.10;99.90;;;;;;5035311;28;20033;-68
2022/12/17 23:17:57;;;;;;;72.28;26.95;;;-3.10;99.90;;;;;;5035256;28;20043;-68
2022/12/17 23:20:25;;;;;;;69.43;27.00;;;-3.10;99.90;;;;;;5035088;28;20540;-69
2022/12/17 23:22:51;;;;;;;78.88;32.22;;;-3.20;99.90;;;;;;5017727;28;20053;-68
2022/12/17 23:25:16;;;;;;;73.35;28.52;;;-3.10;99.90;;;;;;5035573;28;20560;-66
2022/12/17 23:27:44;;;;;;;61.30;26.27;;;-3.00;99.90;;;;;;5035297;28;20045;-68
2022/12/17 23:30:11;;;;;;;66.78;26.48;;;-3.00;99.90;;;;;;5035543;28;20095;-68
2022/12/17 23:32:37;;;;;;;68.18;28.13;;;-3.10;99.90;;;;;;5035260;28;20042;-66
2022/12/17 23:35:03;;;;;;;66.15;27.20;;;-3.10;99.90;;;;;;5035076;28;20511;-67
2022/12/17 23:37:29;;;;;;;65.22;26.35;;;-2.90;99.90;;;;;;5017318;28;20108;-66
2022/12/17 23:39:54;;;;;;;71.30;26.55;;;-3.20;99.90;;;;;;5035230;28;20502;-69
2022/12/17 23:42:20;;;;;;;63.95;25.02;;;-3.30;99.90;;;;;;5035029;28;20126;-66
2022/12/17 23:44:46;;;;;;;63.83;26.63;;;-3.20;99.90;;;;;;5034996;28;20179;-68
2022/12/17 23:47:12;;;;;;;66.38;25.70;;;-3.30;99.90;;;;;;5034961;28;20037;-69
2022/12/17 23:49:37;;;;;;;72.53;28.25;;;-3.50;99.90;;;;;;5034512;28;20392;-69
2022/12/17 23:52:03;;;;;;;75.40;27.23;;;-3.60;99.90;;;;;;5034802;28;20075;-67
2022/12/17 23:54:29;;;;;;;63.72;27.00;;;-3.60;99.90;;;;;;5034812;28;20040;-69
2022/12/17 23:56:55;;;;;;;66.15;27.88;;;-3.60;99.90;;;;;;5034593;28;20116;-68
2022/12/17 23:59:20;;;;;;;67.13;27.55;;;-3.60;99.90;;;;;;5034631;28;20025;-69
